sensor_id;sensor_type;location;lat;lon;timestamp;P1;durP1;ratioP1;P2;durP2;ratioP2
46745;SDS011;32493;50.514;9.678;2023-03-03T00:00:20;41.08;;;20.20;;
46745;SDS011;32493;50.514;9.678;2023-03-03T00:02:26;44.60;;;20.95;;
46745;SDS011;32493;50.514;9.678;2023-03-03T00:04:33;48.45;;;22.92;;
46745;SDS011;32493;50.514;9.678;2023-03-03T00:06:40;43.10;;;21.00;;
46745;SDS011;32493;50.514;9.678;2023-03-03T00:08:46;44.63;;;22.42;;
46745;SDS011;32493;50.514;9.678;2023-03-03T00:10:51;39.28;;;21.05;;
46745;SDS011;32493;50.514;9.678;2023-03-03T00:12:59;41.78;;;20.30;;
46745;SDS011;32493;50.514;9.678;2023-03-03T00:17:20;45.95;;;20.70;;
46745;SDS011;32493;50.514;9.678;2023-03-03T00:19:28;44.13;;;20.73;;
46745;SDS011;32493;50.514;9.678;2023-03-03T00:21:42;42.60;;;20.48;;
46745;SDS011;32493;50.514;9.678;2023-03-03T00:23:53;46.35;;;22.05;;
46745;SDS011;32493;50.514;9.678;2023-03-03T00:26:04;46.05;;;20.88;;
46745;SDS011;32493;50.514;9.678;2023-03-03T00:28:28;46.50;;;22.73;;
46745;SDS011;32493;50.514;9.678;2023-03-03T00:30:35;44.22;;;21.63;;
46745;SDS011;32493;50.514;9.678;2023-03-03T00:32:41;49.10;;;23.27;;
46745;SDS011;32493;50.514;9.678;2023-03-03T00:34:55;44.88;;;22.42;;
46745;SDS011;32493;50.514;9.678;2023-03-03T00:37:30;44.38;;;21.40;;
46745;SDS011;32493;50.514;9.678;2023-03-03T00:39:40;48.50;;;21.98;;
46745;SDS011;32493;50.514;9.678;2023-03-03T00:41:45;49.60;;;23.17;;
46745;SDS011;32493;50.514;9.678;2023-03-03T00:43:56;47.95;;;22.42;;
46745;SDS011;32493;50.514;9.678;2023-03-03T00:46:01;47.58;;;22.30;;
46745;SDS011;32493;50.514;9.678;2023-03-03T00:48:23;43.28;;;21.60;;
46745;SDS011;32493;50.514;9.678;2023-03-03T00:50:31;51.15;;;22.73;;
46745;SDS011;32493;50.514;9.678;2023-03-03T00:52:43;46.05;;;23.50;;
46745;SDS011;32493;50.514;9.678;2023-03-03T00:54:55;52.10;;;23.30;;
46745;SDS011;32493;50.514;9.678;2023-03-03T00:57:00;55.47;;;25.23;;
46745;SDS011;32493;50.514;9.678;2023-03-03T00:59:07;57.38;;;25.10;;
46745;SDS011;32493;50.514;9.678;2023-03-03T01:01:13;52.28;;;24.05;;
46745;SDS011;32493;50.514;9.678;2023-03-03T01:03:23;51.78;;;23.90;;
46745;SDS011;32493;50.514;9.678;2023-03-03T01:05:29;51.47;;;23.95;;
46745;SDS011;32493;50.514;9.678;2023-03-03T01:07:34;50.50;;;23.60;;
46745;SDS011;32493;50.514;9.678;2023-03-03T01:09:39;49.55;;;22.45;;
46745;SDS011;32493;50.514;9.678;2023-03-03T01:11:44;40.83;;;18.92;;
46745;SDS011;32493;50.514;9.678;2023-03-03T01:13:49;29.90;;;14.30;;
46745;SDS011;32493;50.514;9.678;2023-03-03T01:15:59;40.40;;;18.45;;
46745;SDS011;32493;50.514;9.678;2023-03-03T01:18:05;42.30;;;20.02;;
46745;SDS011;32493;50.514;9.678;2023-03-03T01:20:12;46.20;;;21.73;;
46745;SDS011;32493;50.514;9.678;2023-03-03T01:22:21;50.22;;;23.30;;
46745;SDS011;32493;50.514;9.678;2023-03-03T01:24:29;45.78;;;19.80;;
46745;SDS011;32493;50.514;9.678;2023-03-03T01:26:34;51.90;;;22.67;;
46745;SDS011;32493;50.514;9.678;2023-03-03T01:28:41;46.75;;;22.52;;
46745;SDS011;32493;50.514;9.678;2023-03-03T01:30:46;50.97;;;22.23;;
46745;SDS011;32493;50.514;9.678;2023-03-03T01:32:54;50.55;;;22.67;;
46745;SDS011;32493;50.514;9.678;2023-03-03T01:34:59;52.25;;;22.05;;
46745;SDS011;32493;50.514;9.678;2023-03-03T01:37:06;54.78;;;23.35;;
46745;SDS011;32493;50.514;9.678;2023-03-03T01:39:12;47.40;;;21.10;;
46745;SDS011;32493;50.514;9.678;2023-03-03T01:41:17;44.58;;;20.83;;
46745;SDS011;32493;50.514;9.678;2023-03-03T01:43:24;46.47;;;22.65;;
46745;SDS011;32493;50.514;9.678;2023-03-03T01:45:31;45.85;;;22.58;;
46745;SDS011;32493;50.514;9.678;2023-03-03T01:48:15;46.13;;;20.70;;
46745;SDS011;32493;50.514;9.678;2023-03-03T01:50:32;51.83;;;23.25;;
46745;SDS011;32493;50.514;9.678;2023-03-03T01:52:47;35.80;;;17.48;;
46745;SDS011;32493;50.514;9.678;2023-03-03T01:54:53;41.33;;;19.13;;
46745;SDS011;32493;50.514;9.678;2023-03-03T01:57:05;39.58;;;17.90;;
46745;SDS011;32493;50.514;9.678;2023-03-03T01:59:20;35.03;;;16.27;;
46745;SDS011;32493;50.514;9.678;2023-03-03T02:01:32;26.83;;;12.65;;
46745;SDS011;32493;50.514;9.678;2023-03-03T02:03:43;50.42;;;22.00;;
46745;SDS011;32493;50.514;9.678;2023-03-03T02:05:53;45.47;;;21.98;;
46745;SDS011;32493;50.514;9.678;2023-03-03T02:08:04;43.45;;;21.58;;
46745;SDS011;32493;50.514;9.678;2023-03-03T02:10:11;43.17;;;19.80;;
46745;SDS011;32493;50.514;9.678;2023-03-03T02:12:19;49.40;;;22.30;;
46745;SDS011;32493;50.514;9.678;2023-03-03T02:16:45;53.38;;;22.77;;
46745;SDS011;32493;50.514;9.678;2023-03-03T02:18:52;59.75;;;25.25;;
46745;SDS011;32493;50.514;9.678;2023-03-03T02:23:10;62.00;;;26.58;;
46745;SDS011;32493;50.514;9.678;2023-03-03T02:25:25;66.47;;;27.20;;
46745;SDS011;32493;50.514;9.678;2023-03-03T02:27:37;71.72;;;30.85;;
46745;SDS011;32493;50.514;9.678;2023-03-03T02:31:48;77.32;;;31.10;;
46745;SDS011;32493;50.514;9.678;2023-03-03T02:33:55;79.03;;;33.47;;
46745;SDS011;32493;50.514;9.678;2023-03-03T02:36:01;79.72;;;32.15;;
46745;SDS011;32493;50.514;9.678;2023-03-03T02:38:09;74.85;;;30.52;;
46745;SDS011;32493;50.514;9.678;2023-03-03T02:40:23;78.80;;;32.05;;
46745;SDS011;32493;50.514;9.678;2023-03-03T02:42:31;72.97;;;30.90;;
46745;SDS011;32493;50.514;9.678;2023-03-03T02:44:43;75.95;;;30.83;;
46745;SDS011;32493;50.514;9.678;2023-03-03T02:46:49;72.90;;;30.58;;
46745;SDS011;32493;50.514;9.678;2023-03-03T02:48:56;78.45;;;32.70;;
46745;SDS011;32493;50.514;9.678;2023-03-03T02:51:01;72.65;;;30.90;;
46745;SDS011;32493;50.514;9.678;2023-03-03T02:53:09;72.82;;;30.15;;
46745;SDS011;32493;50.514;9.678;2023-03-03T02:55:15;73.60;;;30.52;;
46745;SDS011;32493;50.514;9.678;2023-03-03T02:57:20;73.10;;;31.33;;
46745;SDS011;32493;50.514;9.678;2023-03-03T02:59:30;81.40;;;33.20;;
46745;SDS011;32493;50.514;9.678;2023-03-03T03:01:45;73.78;;;31.33;;
46745;SDS011;32493;50.514;9.678;2023-03-03T03:03:52;72.65;;;30.70;;
46745;SDS011;32493;50.514;9.678;2023-03-03T03:05:57;72.75;;;30.83;;
46745;SDS011;32493;50.514;9.678;2023-03-03T03:08:04;73.73;;;31.97;;
46745;SDS011;32493;50.514;9.678;2023-03-03T03:10:11;73.65;;;30.48;;
46745;SDS011;32493;50.514;9.678;2023-03-03T03:12:16;75.97;;;32.40;;
46745;SDS011;32493;50.514;9.678;2023-03-03T03:14:26;75.40;;;29.80;;
46745;SDS011;32493;50.514;9.678;2023-03-03T03:16:32;79.68;;;32.03;;
46745;SDS011;32493;50.514;9.678;2023-03-03T03:18:41;81.97;;;32.25;;
46745;SDS011;32493;50.514;9.678;2023-03-03T03:20:48;76.05;;;32.67;;
46745;SDS011;32493;50.514;9.678;2023-03-03T03:22:53;74.60;;;30.35;;
46745;SDS011;32493;50.514;9.678;2023-03-03T03:24:59;76.60;;;32.15;;
46745;SDS011;32493;50.514;9.678;2023-03-03T03:27:06;71.50;;;29.65;;
46745;SDS011;32493;50.514;9.678;2023-03-03T03:29:11;79.25;;;32.15;;
46745;SDS011;32493;50.514;9.678;2023-03-03T03:31:20;73.75;;;29.83;;
46745;SDS011;32493;50.514;9.678;2023-03-03T03:33:25;80.93;;;31.35;;
46745;SDS011;32493;50.514;9.678;2023-03-03T03:35:34;84.32;;;33.25;;
46745;SDS011;32493;50.514;9.678;2023-03-03T03:37:41;77.95;;;30.10;;
46745;SDS011;32493;50.514;9.678;2023-03-03T03:39:46;76.05;;;30.48;;
46745;SDS011;32493;50.514;9.678;2023-03-03T03:41:53;76.55;;;29.92;;
46745;SDS011;32493;50.514;9.678;2023-03-03T03:43:59;73.20;;;29.90;;
46745;SDS011;32493;50.514;9.678;2023-03-03T03:46:04;68.78;;;28.73;;
46745;SDS011;32493;50.514;9.678;2023-03-03T03:48:10;73.50;;;29.98;;
46745;SDS011;32493;50.514;9.678;2023-03-03T03:50:18;74.28;;;30.17;;
46745;SDS011;32493;50.514;9.678;2023-03-03T03:52:26;75.47;;;29.75;;
46745;SDS011;32493;50.514;9.678;2023-03-03T03:54:36;72.97;;;29.48;;
46745;SDS011;32493;50.514;9.678;2023-03-03T03:56:41;76.13;;;30.17;;
46745;SDS011;32493;50.514;9.678;2023-03-03T03:58:47;77.18;;;30.58;;
46745;SDS011;32493;50.514;9.678;2023-03-03T04:00:52;73.10;;;29.70;;
46745;SDS011;32493;50.514;9.678;2023-03-03T04:02:58;75.18;;;30.15;;
46745;SDS011;32493;50.514;9.678;2023-03-03T04:05:04;75.40;;;31.20;;
46745;SDS011;32493;50.514;9.678;2023-03-03T04:07:13;72.80;;;29.92;;
46745;SDS011;32493;50.514;9.678;2023-03-03T04:09:22;74.53;;;30.20;;
46745;SDS011;32493;50.514;9.678;2023-03-03T04:11:29;68.75;;;28.73;;
46745;SDS011;32493;50.514;9.678;2023-03-03T04:13:38;70.10;;;29.80;;
46745;SDS011;32493;50.514;9.678;2023-03-03T04:15:45;73.47;;;29.38;;
46745;SDS011;32493;50.514;9.678;2023-03-03T04:17:50;74.15;;;28.17;;
46745;SDS011;32493;50.514;9.678;2023-03-03T04:19:56;70.30;;;28.83;;
46745;SDS011;32493;50.514;9.678;2023-03-03T04:22:03;76.05;;;29.15;;
46745;SDS011;32493;50.514;9.678;2023-03-03T04:24:09;68.03;;;28.50;;
46745;SDS011;32493;50.514;9.678;2023-03-03T04:26:18;73.05;;;28.42;;
46745;SDS011;32493;50.514;9.678;2023-03-03T04:28:27;65.65;;;26.63;;
46745;SDS011;32493;50.514;9.678;2023-03-03T04:30:33;67.95;;;28.58;;
46745;SDS011;32493;50.514;9.678;2023-03-03T04:32:40;68.85;;;26.23;;
46745;SDS011;32493;50.514;9.678;2023-03-03T04:34:47;67.53;;;27.70;;
46745;SDS011;32493;50.514;9.678;2023-03-03T04:37:06;69.22;;;26.75;;
46745;SDS011;32493;50.514;9.678;2023-03-03T04:39:14;74.75;;;28.05;;
46745;SDS011;32493;50.514;9.678;2023-03-03T04:41:22;71.78;;;29.00;;
46745;SDS011;32493;50.514;9.678;2023-03-03T04:43:27;69.80;;;28.35;;
46745;SDS011;32493;50.514;9.678;2023-03-03T04:45:36;71.13;;;28.02;;
46745;SDS011;32493;50.514;9.678;2023-03-03T04:47:42;71.40;;;29.08;;
46745;SDS011;32493;50.514;9.678;2023-03-03T04:49:48;65.20;;;28.33;;
46745;SDS011;32493;50.514;9.678;2023-03-03T04:51:54;77.25;;;28.48;;
46745;SDS011;32493;50.514;9.678;2023-03-03T04:54:03;69.72;;;27.25;;
46745;SDS011;32493;50.514;9.678;2023-03-03T04:56:09;68.30;;;28.52;;
46745;SDS011;32493;50.514;9.678;2023-03-03T04:58:21;72.70;;;29.00;;
46745;SDS011;32493;50.514;9.678;2023-03-03T05:00:28;73.07;;;29.90;;
46745;SDS011;32493;50.514;9.678;2023-03-03T05:02:35;72.80;;;29.02;;
46745;SDS011;32493;50.514;9.678;2023-03-03T05:04:40;71.53;;;28.98;;
46745;SDS011;32493;50.514;9.678;2023-03-03T05:08:53;69.20;;;26.80;;
46745;SDS011;32493;50.514;9.678;2023-03-03T05:10:59;70.95;;;28.73;;
46745;SDS011;32493;50.514;9.678;2023-03-03T05:13:05;68.57;;;27.23;;
46745;SDS011;32493;50.514;9.678;2023-03-03T05:15:13;73.63;;;29.83;;
46745;SDS011;32493;50.514;9.678;2023-03-03T05:17:19;77.10;;;28.65;;
46745;SDS011;32493;50.514;9.678;2023-03-03T05:19:24;74.88;;;29.85;;
46745;SDS011;32493;50.514;9.678;2023-03-03T05:21:30;73.70;;;29.25;;
46745;SDS011;32493;50.514;9.678;2023-03-03T05:23:38;74.75;;;29.55;;
46745;SDS011;32493;50.514;9.678;2023-03-03T05:25:43;74.47;;;28.73;;
46745;SDS011;32493;50.514;9.678;2023-03-03T05:27:51;73.03;;;29.08;;
46745;SDS011;32493;50.514;9.678;2023-03-03T05:29:59;70.55;;;27.08;;
46745;SDS011;32493;50.514;9.678;2023-03-03T05:32:06;65.15;;;27.33;;
46745;SDS011;32493;50.514;9.678;2023-03-03T05:34:19;69.05;;;27.40;;
46745;SDS011;32493;50.514;9.678;2023-03-03T05:36:24;70.57;;;27.63;;
46745;SDS011;32493;50.514;9.678;2023-03-03T05:38:31;71.57;;;27.50;;
46745;SDS011;32493;50.514;9.678;2023-03-03T05:42:44;66.53;;;26.13;;
46745;SDS011;32493;50.514;9.678;2023-03-03T05:44:49;65.97;;;27.00;;
46745;SDS011;32493;50.514;9.678;2023-03-03T05:46:59;65.05;;;27.52;;
46745;SDS011;32493;50.514;9.678;2023-03-03T05:49:07;71.82;;;28.20;;
46745;SDS011;32493;50.514;9.678;2023-03-03T05:51:12;63.92;;;25.92;;
46745;SDS011;32493;50.514;9.678;2023-03-03T05:53:18;58.03;;;23.65;;
46745;SDS011;32493;50.514;9.678;2023-03-03T05:55:26;64.18;;;26.33;;
46745;SDS011;32493;50.514;9.678;2023-03-03T05:57:33;65.18;;;27.38;;
46745;SDS011;32493;50.514;9.678;2023-03-03T06:01:47;63.38;;;25.15;;
46745;SDS011;32493;50.514;9.678;2023-03-03T06:03:54;63.58;;;23.08;;
46745;SDS011;32493;50.514;9.678;2023-03-03T06:06:02;59.72;;;22.88;;
46745;SDS011;32493;50.514;9.678;2023-03-03T06:08:09;63.95;;;24.75;;
46745;SDS011;32493;50.514;9.678;2023-03-03T06:10:18;67.03;;;26.55;;
46745;SDS011;32493;50.514;9.678;2023-03-03T06:12:27;64.18;;;26.35;;
46745;SDS011;32493;50.514;9.678;2023-03-03T06:14:32;66.32;;;25.20;;
46745;SDS011;32493;50.514;9.678;2023-03-03T06:16:39;65.63;;;25.75;;
46745;SDS011;32493;50.514;9.678;2023-03-03T06:18:46;69.05;;;26.48;;
46745;SDS011;32493;50.514;9.678;2023-03-03T06:20:52;64.95;;;27.30;;
46745;SDS011;32493;50.514;9.678;2023-03-03T06:23:00;66.40;;;26.00;;
46745;SDS011;32493;50.514;9.678;2023-03-03T06:25:08;67.60;;;26.17;;
46745;SDS011;32493;50.514;9.678;2023-03-03T06:27:14;55.47;;;22.00;;
46745;SDS011;32493;50.514;9.678;2023-03-03T06:29:19;50.08;;;20.63;;
46745;SDS011;32493;50.514;9.678;2023-03-03T06:31:24;54.00;;;22.77;;
46745;SDS011;32493;50.514;9.678;2023-03-03T06:33:34;57.63;;;22.77;;
46745;SDS011;32493;50.514;9.678;2023-03-03T06:35:39;54.63;;;22.35;;
46745;SDS011;32493;50.514;9.678;2023-03-03T06:37:45;50.40;;;21.10;;
46745;SDS011;32493;50.514;9.678;2023-03-03T06:39:53;52.38;;;21.30;;
46745;SDS011;32493;50.514;9.678;2023-03-03T06:44:03;48.35;;;20.35;;
46745;SDS011;32493;50.514;9.678;2023-03-03T06:46:08;53.50;;;21.23;;
46745;SDS011;32493;50.514;9.678;2023-03-03T06:48:15;51.67;;;20.08;;
46745;SDS011;32493;50.514;9.678;2023-03-03T06:50:20;50.35;;;20.55;;
46745;SDS011;32493;50.514;9.678;2023-03-03T06:52:27;50.85;;;19.77;;
46745;SDS011;32493;50.514;9.678;2023-03-03T06:54:32;54.58;;;20.65;;
46745;SDS011;32493;50.514;9.678;2023-03-03T06:56:41;50.13;;;20.30;;
46745;SDS011;32493;50.514;9.678;2023-03-03T06:58:48;48.47;;;21.08;;
46745;SDS011;32493;50.514;9.678;2023-03-03T07:00:57;52.17;;;20.55;;
46745;SDS011;32493;50.514;9.678;2023-03-03T07:03:07;49.53;;;19.67;;
46745;SDS011;32493;50.514;9.678;2023-03-03T07:05:21;48.95;;;21.00;;
46745;SDS011;32493;50.514;9.678;2023-03-03T07:07:29;54.78;;;22.90;;
46745;SDS011;32493;50.514;9.678;2023-03-03T07:09:34;46.60;;;21.85;;
46745;SDS011;32493;50.514;9.678;2023-03-03T07:11:42;43.72;;;19.25;;
46745;SDS011;32493;50.514;9.678;2023-03-03T07:13:49;51.00;;;18.80;;
46745;SDS011;32493;50.514;9.678;2023-03-03T07:15:58;46.45;;;19.88;;
46745;SDS011;32493;50.514;9.678;2023-03-03T07:18:23;42.08;;;19.05;;
46745;SDS011;32493;50.514;9.678;2023-03-03T07:20:39;40.70;;;18.27;;
46745;SDS011;32493;50.514;9.678;2023-03-03T07:22:45;43.83;;;18.13;;
46745;SDS011;32493;50.514;9.678;2023-03-03T07:24:52;42.08;;;18.30;;
46745;SDS011;32493;50.514;9.678;2023-03-03T07:27:10;43.10;;;17.52;;
46745;SDS011;32493;50.514;9.678;2023-03-03T07:29:21;44.90;;;18.00;;
46745;SDS011;32493;50.514;9.678;2023-03-03T07:31:33;43.28;;;18.17;;
46745;SDS011;32493;50.514;9.678;2023-03-03T07:33:42;43.60;;;18.50;;
46745;SDS011;32493;50.514;9.678;2023-03-03T07:35:51;45.17;;;18.65;;
46745;SDS011;32493;50.514;9.678;2023-03-03T07:37:59;43.53;;;18.15;;
46745;SDS011;32493;50.514;9.678;2023-03-03T07:40:06;47.70;;;18.73;;
46745;SDS011;32493;50.514;9.678;2023-03-03T07:42:38;44.92;;;18.67;;
46745;SDS011;32493;50.514;9.678;2023-03-03T07:45:19;46.70;;;18.73;;
46745;SDS011;32493;50.514;9.678;2023-03-03T07:47:34;47.15;;;19.05;;
46745;SDS011;32493;50.514;9.678;2023-03-03T07:49:43;46.83;;;18.92;;
46745;SDS011;32493;50.514;9.678;2023-03-03T07:51:51;42.80;;;18.23;;
46745;SDS011;32493;50.514;9.678;2023-03-03T07:54:13;46.60;;;19.95;;
46745;SDS011;32493;50.514;9.678;2023-03-03T07:56:33;45.00;;;19.08;;
46745;SDS011;32493;50.514;9.678;2023-03-03T07:58:45;42.08;;;18.05;;
46745;SDS011;32493;50.514;9.678;2023-03-03T08:03:40;40.15;;;16.27;;
46745;SDS011;32493;50.514;9.678;2023-03-03T08:05:47;39.70;;;16.23;;
46745;SDS011;32493;50.514;9.678;2023-03-03T08:07:54;36.93;;;16.67;;
46745;SDS011;32493;50.514;9.678;2023-03-03T08:10:26;37.13;;;15.52;;
46745;SDS011;32493;50.514;9.678;2023-03-03T08:12:44;39.40;;;15.55;;
46745;SDS011;32493;50.514;9.678;2023-03-03T08:14:52;37.25;;;16.38;;
46745;SDS011;32493;50.514;9.678;2023-03-03T08:16:58;33.70;;;15.50;;
46745;SDS011;32493;50.514;9.678;2023-03-03T08:19:05;37.50;;;16.23;;
46745;SDS011;32493;50.514;9.678;2023-03-03T08:21:11;40.20;;;16.90;;
46745;SDS011;32493;50.514;9.678;2023-03-03T08:23:18;32.70;;;14.70;;
46745;SDS011;32493;50.514;9.678;2023-03-03T08:25:24;32.88;;;14.40;;
46745;SDS011;32493;50.514;9.678;2023-03-03T08:27:30;37.58;;;14.38;;
46745;SDS011;32493;50.514;9.678;2023-03-03T08:29:35;32.08;;;14.65;;
46745;SDS011;32493;50.514;9.678;2023-03-03T08:31:43;31.10;;;14.38;;
46745;SDS011;32493;50.514;9.678;2023-03-03T08:33:49;34.38;;;14.77;;
46745;SDS011;32493;50.514;9.678;2023-03-03T08:35:55;32.08;;;13.93;;
46745;SDS011;32493;50.514;9.678;2023-03-03T08:38:01;31.90;;;14.48;;
46745;SDS011;32493;50.514;9.678;2023-03-03T08:40:07;29.52;;;13.13;;
46745;SDS011;32493;50.514;9.678;2023-03-03T08:42:19;29.25;;;12.65;;
46745;SDS011;32493;50.514;9.678;2023-03-03T08:44:24;30.30;;;14.13;;
46745;SDS011;32493;50.514;9.678;2023-03-03T08:46:29;32.03;;;14.98;;
46745;SDS011;32493;50.514;9.678;2023-03-03T08:48:37;33.38;;;14.75;;
46745;SDS011;32493;50.514;9.678;2023-03-03T08:50:44;28.40;;;12.70;;
46745;SDS011;32493;50.514;9.678;2023-03-03T08:52:50;29.85;;;13.45;;
46745;SDS011;32493;50.514;9.678;2023-03-03T08:54:55;32.60;;;14.77;;
46745;SDS011;32493;50.514;9.678;2023-03-03T08:57:00;38.60;;;16.77;;
46745;SDS011;32493;50.514;9.678;2023-03-03T08:59:05;36.25;;;14.60;;
46745;SDS011;32493;50.514;9.678;2023-03-03T09:01:11;32.83;;;15.07;;
46745;SDS011;32493;50.514;9.678;2023-03-03T09:03:17;36.40;;;15.07;;
46745;SDS011;32493;50.514;9.678;2023-03-03T09:05:25;35.08;;;15.40;;
46745;SDS011;32493;50.514;9.678;2023-03-03T09:07:33;39.65;;;17.33;;
46745;SDS011;32493;50.514;9.678;2023-03-03T09:09:38;38.72;;;15.90;;
46745;SDS011;32493;50.514;9.678;2023-03-03T09:11:43;34.10;;;14.48;;
46745;SDS011;32493;50.514;9.678;2023-03-03T09:13:48;35.35;;;15.98;;
46745;SDS011;32493;50.514;9.678;2023-03-03T09:15:54;36.30;;;15.25;;
46745;SDS011;32493;50.514;9.678;2023-03-03T09:18:05;34.05;;;14.80;;
46745;SDS011;32493;50.514;9.678;2023-03-03T09:20:26;33.80;;;14.93;;
46745;SDS011;32493;50.514;9.678;2023-03-03T09:22:36;34.40;;;15.43;;
46745;SDS011;32493;50.514;9.678;2023-03-03T09:24:43;35.70;;;14.75;;
46745;SDS011;32493;50.514;9.678;2023-03-03T09:26:49;36.22;;;16.13;;
46745;SDS011;32493;50.514;9.678;2023-03-03T09:28:58;34.65;;;15.02;;
46745;SDS011;32493;50.514;9.678;2023-03-03T09:31:24;34.65;;;15.07;;
46745;SDS011;32493;50.514;9.678;2023-03-03T09:33:39;32.60;;;12.23;;
46745;SDS011;32493;50.514;9.678;2023-03-03T09:35:52;35.25;;;14.05;;
46745;SDS011;32493;50.514;9.678;2023-03-03T09:38:09;36.28;;;14.77;;
46745;SDS011;32493;50.514;9.678;2023-03-03T09:40:38;35.22;;;15.15;;
46745;SDS011;32493;50.514;9.678;2023-03-03T09:42:59;34.70;;;14.15;;
46745;SDS011;32493;50.514;9.678;2023-03-03T09:45:11;33.30;;;14.45;;
46745;SDS011;32493;50.514;9.678;2023-03-03T09:47:34;34.63;;;15.15;;
46745;SDS011;32493;50.514;9.678;2023-03-03T09:49:57;31.33;;;13.43;;
46745;SDS011;32493;50.514;9.678;2023-03-03T09:52:22;35.22;;;14.95;;
46745;SDS011;32493;50.514;9.678;2023-03-03T09:54:45;35.05;;;13.90;;
46745;SDS011;32493;50.514;9.678;2023-03-03T09:57:02;31.88;;;15.50;;
46745;SDS011;32493;50.514;9.678;2023-03-03T09:59:26;34.88;;;14.13;;
46745;SDS011;32493;50.514;9.678;2023-03-03T10:01:51;35.88;;;15.10;;
46745;SDS011;32493;50.514;9.678;2023-03-03T10:04:15;32.45;;;13.35;;
46745;SDS011;32493;50.514;9.678;2023-03-03T10:07:00;37.35;;;14.23;;
46745;SDS011;32493;50.514;9.678;2023-03-03T10:09:33;30.88;;;12.32;;
46745;SDS011;32493;50.514;9.678;2023-03-03T10:12:04;27.80;;;12.50;;
46745;SDS011;32493;50.514;9.678;2023-03-03T10:14:27;28.05;;;11.93;;
46745;SDS011;32493;50.514;9.678;2023-03-03T10:16:52;25.80;;;11.07;;
46745;SDS011;32493;50.514;9.678;2023-03-03T10:19:12;29.60;;;12.00;;
46745;SDS011;32493;50.514;9.678;2023-03-03T10:21:35;27.10;;;11.50;;
46745;SDS011;32493;50.514;9.678;2023-03-03T10:23:49;31.42;;;12.30;;
46745;SDS011;32493;50.514;9.678;2023-03-03T10:26:04;29.05;;;12.63;;
46745;SDS011;32493;50.514;9.678;2023-03-03T10:28:24;32.00;;;13.73;;
46745;SDS011;32493;50.514;9.678;2023-03-03T10:31:09;31.73;;;12.93;;
46745;SDS011;32493;50.514;9.678;2023-03-03T10:33:31;27.83;;;12.35;;
46745;SDS011;32493;50.514;9.678;2023-03-03T10:38:45;26.60;;;12.48;;
46745;SDS011;32493;50.514;9.678;2023-03-03T10:41:13;39.03;;;15.88;;
46745;SDS011;32493;50.514;9.678;2023-03-03T10:43:44;34.55;;;14.50;;
46745;SDS011;32493;50.514;9.678;2023-03-03T10:46:15;31.77;;;12.85;;
46745;SDS011;32493;50.514;9.678;2023-03-03T10:48:40;39.85;;;15.10;;
46745;SDS011;32493;50.514;9.678;2023-03-03T10:51:02;33.15;;;13.18;;
46745;SDS011;32493;50.514;9.678;2023-03-03T10:53:25;29.15;;;12.68;;
46745;SDS011;32493;50.514;9.678;2023-03-03T10:55:35;58.65;;;19.98;;
46745;SDS011;32493;50.514;9.678;2023-03-03T10:57:56;31.98;;;13.38;;
46745;SDS011;32493;50.514;9.678;2023-03-03T11:00:22;30.42;;;12.27;;
46745;SDS011;32493;50.514;9.678;2023-03-03T11:02:35;26.20;;;11.73;;
46745;SDS011;32493;50.514;9.678;2023-03-03T11:04:54;25.20;;;11.20;;
46745;SDS011;32493;50.514;9.678;2023-03-03T11:07:19;28.42;;;11.27;;
46745;SDS011;32493;50.514;9.678;2023-03-03T11:12:23;27.33;;;11.63;;
46745;SDS011;32493;50.514;9.678;2023-03-03T11:14:42;27.10;;;11.18;;
46745;SDS011;32493;50.514;9.678;2023-03-03T11:16:56;28.55;;;10.88;;
46745;SDS011;32493;50.514;9.678;2023-03-03T11:22:08;26.25;;;11.73;;
46745;SDS011;32493;50.514;9.678;2023-03-03T11:24:30;26.50;;;10.82;;
46745;SDS011;32493;50.514;9.678;2023-03-03T11:26:53;27.05;;;10.50;;
46745;SDS011;32493;50.514;9.678;2023-03-03T11:29:32;25.27;;;10.68;;
46745;SDS011;32493;50.514;9.678;2023-03-03T11:31:54;31.73;;;13.40;;
46745;SDS011;32493;50.514;9.678;2023-03-03T11:34:23;24.98;;;11.38;;
46745;SDS011;32493;50.514;9.678;2023-03-03T11:36:48;23.92;;;11.55;;
46745;SDS011;32493;50.514;9.678;2023-03-03T11:39:01;29.73;;;13.32;;
46745;SDS011;32493;50.514;9.678;2023-03-03T11:41:10;25.45;;;12.05;;
46745;SDS011;32493;50.514;9.678;2023-03-03T11:43:31;24.92;;;11.93;;
46745;SDS011;32493;50.514;9.678;2023-03-03T11:45:44;27.90;;;12.20;;
46745;SDS011;32493;50.514;9.678;2023-03-03T11:47:56;27.42;;;11.20;;
46745;SDS011;32493;50.514;9.678;2023-03-03T11:50:10;22.85;;;10.55;;
46745;SDS011;32493;50.514;9.678;2023-03-03T11:52:25;24.50;;;10.85;;
46745;SDS011;32493;50.514;9.678;2023-03-03T11:54:37;26.42;;;10.95;;
46745;SDS011;32493;50.514;9.678;2023-03-03T11:56:55;22.30;;;10.70;;
46745;SDS011;32493;50.514;9.678;2023-03-03T12:01:48;22.60;;;10.27;;
46745;SDS011;32493;50.514;9.678;2023-03-03T12:04:01;20.55;;;9.90;;
46745;SDS011;32493;50.514;9.678;2023-03-03T12:06:11;22.85;;;10.15;;
46745;SDS011;32493;50.514;9.678;2023-03-03T12:11:14;19.65;;;9.35;;
46745;SDS011;32493;50.514;9.678;2023-03-03T12:13:32;20.63;;;9.15;;
46745;SDS011;32493;50.514;9.678;2023-03-03T12:15:51;22.17;;;9.93;;
46745;SDS011;32493;50.514;9.678;2023-03-03T12:21:07;18.83;;;9.50;;
46745;SDS011;32493;50.514;9.678;2023-03-03T12:23:32;19.40;;;8.85;;
46745;SDS011;32493;50.514;9.678;2023-03-03T12:25:54;19.25;;;8.63;;
46745;SDS011;32493;50.514;9.678;2023-03-03T12:28:09;20.70;;;9.48;;
46745;SDS011;32493;50.514;9.678;2023-03-03T12:30:25;19.67;;;9.43;;
46745;SDS011;32493;50.514;9.678;2023-03-03T12:32:49;21.38;;;9.60;;
46745;SDS011;32493;50.514;9.678;2023-03-03T12:35:23;22.70;;;9.80;;
46745;SDS011;32493;50.514;9.678;2023-03-03T12:37:44;16.77;;;9.02;;
46745;SDS011;32493;50.514;9.678;2023-03-03T12:40:00;19.42;;;9.35;;
46745;SDS011;32493;50.514;9.678;2023-03-03T12:42:14;20.15;;;8.90;;
46745;SDS011;32493;50.514;9.678;2023-03-03T12:44:29;22.67;;;10.10;;
46745;SDS011;32493;50.514;9.678;2023-03-03T12:46:43;18.30;;;8.50;;
46745;SDS011;32493;50.514;9.678;2023-03-03T12:49:02;16.35;;;8.60;;
46745;SDS011;32493;50.514;9.678;2023-03-03T12:51:13;19.92;;;9.30;;
46745;SDS011;32493;50.514;9.678;2023-03-03T12:53:31;16.20;;;8.57;;
46745;SDS011;32493;50.514;9.678;2023-03-03T12:55:50;15.95;;;8.35;;
46745;SDS011;32493;50.514;9.678;2023-03-03T12:58:01;16.33;;;8.65;;
46745;SDS011;32493;50.514;9.678;2023-03-03T13:00:25;17.45;;;9.57;;
46745;SDS011;32493;50.514;9.678;2023-03-03T13:02:44;16.88;;;9.50;;
46745;SDS011;32493;50.514;9.678;2023-03-03T13:05:01;14.68;;;8.15;;
46745;SDS011;32493;50.514;9.678;2023-03-03T13:07:24;16.48;;;9.40;;
46745;SDS011;32493;50.514;9.678;2023-03-03T13:09:37;16.38;;;9.40;;
46745;SDS011;32493;50.514;9.678;2023-03-03T13:12:07;14.35;;;8.82;;
46745;SDS011;32493;50.514;9.678;2023-03-03T13:14:33;15.32;;;8.93;;
46745;SDS011;32493;50.514;9.678;2023-03-03T13:16:47;17.13;;;9.73;;
46745;SDS011;32493;50.514;9.678;2023-03-03T13:19:03;15.88;;;9.43;;
46745;SDS011;32493;50.514;9.678;2023-03-03T13:21:15;17.25;;;9.93;;
46745;SDS011;32493;50.514;9.678;2023-03-03T13:23:38;14.65;;;8.73;;
46745;SDS011;32493;50.514;9.678;2023-03-03T13:25:54;14.60;;;9.30;;
46745;SDS011;32493;50.514;9.678;2023-03-03T13:28:05;16.63;;;9.73;;